Date,TemperatureHighF,TemperatureAvgF,TemperatureLowF,DewpointHighF,DewpointAvgF,DewpointLowF,HumidityHigh,HumidityAvg,HumidityLow,PressureMaxIn,PressureMinIn,WindSpeedMaxMPH,WindSpeedAvgMPH,GustSpeedMaxMPH,PrecipitationSumIn
2013-3-1,86,68,54,52,31,19,65,28,11,30.48,30.32,25,6,25,0.00
2013-3-2,85,66,53,55,38,22,96,44,15,30.38,30.23,14,5,14,0.00
2013-3-3,72,58,51,57,52,42,94,80,35,30.30,30.14,17,5,17,0.00
2013-3-4,66,54,47,54,50,46,97,85,60,30.27,30.17,17,4,17,0.00
2013-3-5,63,53,46,52,49,44,95,86,64,30.30,30.19,15,4,15,0.00
2013-3-6,60,52,45,50,47,42,97,85,58,30.32,30.17,10,3,10,0.00
2013-3-7,63,54,48,54,48,41,98,81,48,30.18,30.00,14,4,14,0.45
2013-3-8,62,52,43,52,46,42,99,80,59,30.19,29.95,22,6,22,0.30
2013-3-9,66,55,40,50,43,31,91,66,29,30.38,30.18,24,5,24,0.00
2013-3-10,76,59,45,52,41,29,91,56,22,30.45,30.33,17,5,17,0.00
2013-3-11,71,56,43,53,44,38,90,68,34,30.36,30.21,14,4,14,0.00
2013-3-12,70,56,45,54,48,41,93,74,46,30.26,30.19,12,3,12,0.00
2013-3-13,73,56,44,56,50,42,99,82,43,30.28,30.19,13,3,13,0.00
2013-3-14,63,54,46,59,51,45,99,92,72,30.27,30.17,17,4,17,0.00
2013-3-15,68,55,49,63,53,49,99,91,64,30.20,30.10,14,3,14,0.00
2013-3-16,64,53,49,56,52,48,99,93,70,30.15,30.04,15,3,15,0.00
2013-3-17,69,55,49,57,52,48,99,89,58,30.18,30.08,14,3,14,0.00
2013-3-18,63,55,47,53,51,47,99,87,67,30.25,30.14,13,3,13,0.00
2013-3-19,65,56,48,56,52,47,97,87,68,30.29,30.19,17,5,17,0.00
2013-3-20,68,59,51,58,53,49,98,82,61,30.27,30.11,14,3,14,0.00
2013-3-21,73,59,48,56,52,47,94,78,49,30.11,29.95,13,4,13,0.00
2013-3-22,73,59,45,54,46,30,94,64,21,30.06,29.94,16,4,16,0.00
2013-3-23,70,56,44,55,45,29,92,68,34,30.19,30.05,15,4,15,0.00
2013-3-24,71,58,46,56,50,39,99,77,34,30.19,30.05,18,4,18,0.00
2013-3-25,69,57,45,57,50,38,96,80,34,30.15,30.05,14,4,14,0.00
2013-3-26,65,56,45,55,50,44,96,83,56,30.15,30.06,14,4,14,0.00
2013-3-27,70,57,50,56,52,49,99,84,52,30.21,30.09,15,5,15,0.00
2013-3-28,68,57,50,56,53,49,99,88,63,30.25,30.17,15,4,15,0.00
2013-3-29,68,60,54,58,55,53,97,84,66,30.28,30.19,17,6,17,0.00
2013-3-30,66,57,53,57,54,52,99,89,71,30.30,30.22,16,5,16,0.00
2013-3-31,66,58,53,62,55,52,98,91,71,30.29,30.21,16,5,16,0.14